sensor_id;sensor_type;location;lat;lon;timestamp;P1;P2;P0
76304;PMS7003;65111;50.536;19.204;2023-02-28T00:00:47;4.00;1.00;1.00
76304;PMS7003;65111;50.536;19.204;2023-02-28T00:03:13;4.50;2.00;1.00
76304;PMS7003;65111;50.536;19.204;2023-02-28T00:05:39;6.00;4.00;3.00
76304;PMS7003;65111;50.536;19.204;2023-02-28T00:08:05;7.00;4.00;3.00
76304;PMS7003;65111;50.536;19.204;2023-02-28T00:10:31;3.25;3.00;1.00
76304;PMS7003;65111;50.536;19.204;2023-02-28T00:13:01;7.00;4.00;3.00
76304;PMS7003;65111;50.536;19.204;2023-02-28T00:15:30;10.00;6.33;3.00
76304;PMS7003;65111;50.536;19.204;2023-02-28T00:17:57;8.33;3.00;1.00
76304;PMS7003;65111;50.536;19.204;2023-02-28T00:20:23;3.25;3.25;2.00
76304;PMS7003;65111;50.536;19.204;2023-02-28T00:22:51;6.00;3.00;3.00
76304;PMS7003;65111;50.536;19.204;2023-02-28T00:25:19;3.00;3.00;1.00
76304;PMS7003;65111;50.536;19.204;2023-02-28T00:27:48;3.33;3.00;1.00
76304;PMS7003;65111;50.536;19.204;2023-02-28T00:30:15;5.50;4.00;4.00
76304;PMS7003;65111;50.536;19.204;2023-02-28T00:32:48;3.00;3.00;1.00
76304;PMS7003;65111;50.536;19.204;2023-02-28T00:35:16;3.50;3.50;3.00
76304;PMS7003;65111;50.536;19.204;2023-02-28T00:37:42;6.25;4.50;3.00
76304;PMS7003;65111;50.536;19.204;2023-02-28T00:40:09;7.00;7.00;5.00
76304;PMS7003;65111;50.536;19.204;2023-02-28T00:42:37;5.00;3.75;2.50
76304;PMS7003;65111;50.536;19.204;2023-02-28T00:45:04;4.00;3.00;1.67
76304;PMS7003;65111;50.536;19.204;2023-02-28T00:47:31;7.00;7.00;6.00
76304;PMS7003;65111;50.536;19.204;2023-02-28T00:49:58;1.00;0.75;0.75
76304;PMS7003;65111;50.536;19.204;2023-02-28T00:52:23;4.00;4.00;1.67
76304;PMS7003;65111;50.536;19.204;2023-02-28T00:54:50;6.00;6.00;4.00
76304;PMS7003;65111;50.536;19.204;2023-02-28T00:57:15;4.00;4.00;2.50
76304;PMS7003;65111;50.536;19.204;2023-02-28T00:59:41;7.00;4.00;3.00
76304;PMS7003;65111;50.536;19.204;2023-02-28T01:02:07;1.67;1.67;1.00
76304;PMS7003;65111;50.536;19.204;2023-02-28T01:04:33;9.00;6.00;3.00
76304;PMS7003;65111;50.536;19.204;2023-02-28T01:06:59;3.00;3.00;3.00
76304;PMS7003;65111;50.536;19.204;2023-02-28T01:09:25;7.00;4.00;3.00
76304;PMS7003;65111;50.536;19.204;2023-02-28T01:11:51;7.75;6.50;4.00
76304;PMS7003;65111;50.536;19.204;2023-02-28T01:14:17;6.00;6.00;3.75
76304;PMS7003;65111;50.536;19.204;2023-02-28T01:16:43;6.50;5.00;3.00
76304;PMS7003;65111;50.536;19.204;2023-02-28T01:19:09;6.00;4.00;3.00
76304;PMS7003;65111;50.536;19.204;2023-02-28T01:21:36;4.00;3.00;1.00
76304;PMS7003;65111;50.536;19.204;2023-02-28T01:24:02;6.00;3.00;3.00
76304;PMS7003;65111;50.536;19.204;2023-02-28T01:26:30;6.00;4.00;3.00
76304;PMS7003;65111;50.536;19.204;2023-02-28T01:28:56;6.33;3.00;2.33
76304;PMS7003;65111;50.536;19.204;2023-02-28T01:31:22;6.00;6.00;2.00
76304;PMS7003;65111;50.536;19.204;2023-02-28T01:33:49;10.00;9.00;6.00
76304;PMS7003;65111;50.536;19.204;2023-02-28T01:36:16;8.50;6.50;3.50
76304;PMS7003;65111;50.536;19.204;2023-02-28T01:38:45;5.50;5.00;4.00
76304;PMS7003;65111;50.536;19.204;2023-02-28T01:41:33;9.33;6.67;5.67
76304;PMS7003;65111;50.536;19.204;2023-02-28T01:47:10;6.33;4.67;3.33
76304;PMS7003;65111;50.536;19.204;2023-02-28T01:49:36;7.00;7.00;6.00
76304;PMS7003;65111;50.536;19.204;2023-02-28T01:52:02;9.33;6.33;4.67
76304;PMS7003;65111;50.536;19.204;2023-02-28T01:54:31;6.00;6.00;4.00
76304;PMS7003;65111;50.536;19.204;2023-02-28T01:59:36;6.33;4.67;3.00
76304;PMS7003;65111;50.536;19.204;2023-02-28T02:02:06;7.50;6.00;4.00
76304;PMS7003;65111;50.536;19.204;2023-02-28T02:04:34;4.67;3.67;3.00
76304;PMS7003;65111;50.536;19.204;2023-02-28T02:07:04;7.00;7.00;4.00
76304;PMS7003;65111;50.536;19.204;2023-02-28T02:09:30;6.00;5.33;3.33
76304;PMS7003;65111;50.536;19.204;2023-02-28T02:11:56;6.25;6.25;4.00
76304;PMS7003;65111;50.536;19.204;2023-02-28T02:17:16;11.25;7.75;4.50
76304;PMS7003;65111;50.536;19.204;2023-02-28T02:20:11;11.75;10.00;6.00
76304;PMS7003;65111;50.536;19.204;2023-02-28T02:23:02;13.67;9.33;6.00
76304;PMS7003;65111;50.536;19.204;2023-02-28T02:25:58;14.33;10.00;6.67
76304;PMS7003;65111;50.536;19.204;2023-02-28T02:31:48;8.67;7.67;5.33
76304;PMS7003;65111;50.536;19.204;2023-02-28T02:37:28;11.00;9.50;7.00
76304;PMS7003;65111;50.536;19.204;2023-02-28T02:43:17;15.00;7.00;6.00
76304;PMS7003;65111;50.536;19.204;2023-02-28T02:45:52;14.50;12.00;9.00
76304;PMS7003;65111;50.536;19.204;2023-02-28T02:48:29;16.00;10.67;7.00
76304;PMS7003;65111;50.536;19.204;2023-02-28T02:50:58;10.00;9.25;6.25
76304;PMS7003;65111;50.536;19.204;2023-02-28T02:53:28;11.50;8.75;6.25
76304;PMS7003;65111;50.536;19.204;2023-02-28T02:55:59;11.00;9.67;5.33
76304;PMS7003;65111;50.536;19.204;2023-02-28T02:58:29;8.00;7.00;6.00
76304;PMS7003;65111;50.536;19.204;2023-02-28T03:01:01;13.00;9.00;6.00
76304;PMS7003;65111;50.536;19.204;2023-02-28T03:03:29;8.33;8.33;5.33
76304;PMS7003;65111;50.536;19.204;2023-02-28T03:05:59;8.00;8.00;6.50
76304;PMS7003;65111;50.536;19.204;2023-02-28T03:08:29;15.00;9.00;6.00
76304;PMS7003;65111;50.536;19.204;2023-02-28T03:10:59;12.00;7.00;4.00
76304;PMS7003;65111;50.536;19.204;2023-02-28T03:32:55;6.00;6.00;4.00
76304;PMS7003;65111;50.536;19.204;2023-02-28T03:35:34;8.75;7.00;5.50
76304;PMS7003;65111;50.536;19.204;2023-02-28T03:38:22;15.50;10.25;6.00
76304;PMS7003;65111;50.536;19.204;2023-02-28T03:40:51;9.25;6.50;5.50
76304;PMS7003;65111;50.536;19.204;2023-02-28T03:43:27;8.67;6.67;4.00
76304;PMS7003;65111;50.536;19.204;2023-02-28T03:45:56;10.00;10.00;6.00
76304;PMS7003;65111;50.536;19.204;2023-02-28T03:48:31;8.00;8.00;4.00
76304;PMS7003;65111;50.536;19.204;2023-02-28T03:51:03;6.00;6.00;6.00
76304;PMS7003;65111;50.536;19.204;2023-02-28T03:53:33;5.33;3.67;3.00
76304;PMS7003;65111;50.536;19.204;2023-02-28T03:56:07;11.75;6.25;4.50
76304;PMS7003;65111;50.536;19.204;2023-02-28T04:01:26;9.00;6.50;4.00
76304;PMS7003;65111;50.536;19.204;2023-02-28T04:04:02;6.00;6.00;4.00
76304;PMS7003;65111;50.536;19.204;2023-02-28T04:06:30;9.00;9.00;4.00
76304;PMS7003;65111;50.536;19.204;2023-02-28T04:08:58;3.50;2.00;1.75
76304;PMS7003;65111;50.536;19.204;2023-02-28T04:11:47;9.00;8.50;6.00
76304;PMS7003;65111;50.536;19.204;2023-02-28T04:14:14;2.00;2.00;1.00
76304;PMS7003;65111;50.536;19.204;2023-02-28T04:16:41;3.00;3.00;1.00
76304;PMS7003;65111;50.536;19.204;2023-02-28T04:19:08;7.00;4.00;3.00
76304;PMS7003;65111;50.536;19.204;2023-02-28T04:21:54;6.00;6.00;4.00
76304;PMS7003;65111;50.536;19.204;2023-02-28T04:24:21;6.00;6.00;4.00
76304;PMS7003;65111;50.536;19.204;2023-02-28T04:26:50;2.50;2.50;1.00
76304;PMS7003;65111;50.536;19.204;2023-02-28T04:29:25;6.67;6.00;4.00
76304;PMS7003;65111;50.536;19.204;2023-02-28T04:31:53;9.50;7.00;4.00
76304;PMS7003;65111;50.536;19.204;2023-02-28T04:34:20;7.00;6.00;3.00
76304;PMS7003;65111;50.536;19.204;2023-02-28T04:36:47;7.00;7.00;6.00
76304;PMS7003;65111;50.536;19.204;2023-02-28T04:39:16;6.00;3.67;3.00
76304;PMS7003;65111;50.536;19.204;2023-02-28T04:41:44;12.75;7.00;4.00
76304;PMS7003;65111;50.536;19.204;2023-02-28T04:44:11;6.00;6.00;4.00
76304;PMS7003;65111;50.536;19.204;2023-02-28T04:46:37;6.67;6.67;3.67
76304;PMS7003;65111;50.536;19.204;2023-02-28T04:49:03;5.50;5.50;4.00
76304;PMS7003;65111;50.536;19.204;2023-02-28T04:51:29;6.33;5.33;3.67
76304;PMS7003;65111;50.536;19.204;2023-02-28T04:53:55;6.00;4.00;3.00
76304;PMS7003;65111;50.536;19.204;2023-02-28T04:56:21;6.00;5.00;4.00
76304;PMS7003;65111;50.536;19.204;2023-02-28T04:58:48;7.00;4.00;3.00
76304;PMS7003;65111;50.536;19.204;2023-02-28T05:01:18;5.75;3.75;3.25
76304;PMS7003;65111;50.536;19.204;2023-02-28T05:03:45;6.00;6.00;4.00
76304;PMS7003;65111;50.536;19.204;2023-02-28T05:06:11;3.50;3.50;1.00
76304;PMS7003;65111;50.536;19.204;2023-02-28T05:08:38;4.00;3.50;2.00
76304;PMS7003;65111;50.536;19.204;2023-02-28T05:11:06;4.00;3.00;3.00
76304;PMS7003;65111;50.536;19.204;2023-02-28T05:13:39;3.00;3.00;1.00
76304;PMS7003;65111;50.536;19.204;2023-02-28T05:16:05;6.00;5.00;3.75
76304;PMS7003;65111;50.536;19.204;2023-02-28T05:18:31;6.25;6.25;4.00
76304;PMS7003;65111;50.536;19.204;2023-02-28T05:20:57;7.00;6.67;3.67
76304;PMS7003;65111;50.536;19.204;2023-02-28T05:23:23;4.00;4.00;3.00
76304;PMS7003;65111;50.536;19.204;2023-02-28T05:25:49;3.00;3.00;1.50
76304;PMS7003;65111;50.536;19.204;2023-02-28T05:28:15;7.00;6.00;2.00
76304;PMS7003;65111;50.536;19.204;2023-02-28T05:30:41;7.67;6.00;4.00
76304;PMS7003;65111;50.536;19.204;2023-02-28T05:33:10;6.50;6.00;3.75
76304;PMS7003;65111;50.536;19.204;2023-02-28T05:35:38;5.50;5.50;3.00
76304;PMS7003;65111;50.536;19.204;2023-02-28T05:38:05;9.00;7.00;4.00
76304;PMS7003;65111;50.536;19.204;2023-02-28T05:40:32;7.67;7.67;6.00
76304;PMS7003;65111;50.536;19.204;2023-02-28T05:42:58;10.00;9.00;6.50
76304;PMS7003;65111;50.536;19.204;2023-02-28T05:45:24;9.00;9.00;5.00
76304;PMS7003;65111;50.536;19.204;2023-02-28T05:47:53;13.00;12.00;7.00
76304;PMS7003;65111;50.536;19.204;2023-02-28T05:50:20;12.00;9.00;6.00
76304;PMS7003;65111;50.536;19.204;2023-02-28T05:52:52;7.00;6.50;4.00
76304;PMS7003;65111;50.536;19.204;2023-02-28T05:55:18;11.00;10.00;7.00
76304;PMS7003;65111;50.536;19.204;2023-02-28T05:57:44;15.50;10.00;7.00
76304;PMS7003;65111;50.536;19.204;2023-02-28T06:00:10;13.00;10.00;9.00
76304;PMS7003;65111;50.536;19.204;2023-02-28T06:02:38;18.00;14.00;9.75
76304;PMS7003;65111;50.536;19.204;2023-02-28T06:05:07;15.75;15.25;12.00
76304;PMS7003;65111;50.536;19.204;2023-02-28T06:07:38;21.00;18.33;12.00
76304;PMS7003;65111;50.536;19.204;2023-02-28T06:10:05;18.00;15.00;10.00
76304;PMS7003;65111;50.536;19.204;2023-02-28T06:12:31;14.75;13.50;10.50
76304;PMS7003;65111;50.536;19.204;2023-02-28T06:14:57;14.75;14.75;9.75
76304;PMS7003;65111;50.536;19.204;2023-02-28T06:17:23;17.50;14.00;9.00
76304;PMS7003;65111;50.536;19.204;2023-02-28T06:19:49;16.00;16.00;9.00
76304;PMS7003;65111;50.536;19.204;2023-02-28T06:22:15;13.00;12.00;8.00
76304;PMS7003;65111;50.536;19.204;2023-02-28T06:24:41;9.00;9.00;4.00
76304;PMS7003;65111;50.536;19.204;2023-02-28T06:27:06;14.00;12.33;9.67
76304;PMS7003;65111;50.536;19.204;2023-02-28T06:29:33;17.33;17.33;10.00
76304;PMS7003;65111;50.536;19.204;2023-02-28T06:32:00;12.00;10.00;7.00
76304;PMS7003;65111;50.536;19.204;2023-02-28T06:34:26;12.00;9.00;7.00
76304;PMS7003;65111;50.536;19.204;2023-02-28T06:36:52;13.00;13.00;9.00
76304;PMS7003;65111;50.536;19.204;2023-02-28T06:39:18;22.00;16.00;12.00
76304;PMS7003;65111;50.536;19.204;2023-02-28T06:41:45;15.33;15.00;10.00
76304;PMS7003;65111;50.536;19.204;2023-02-28T06:44:16;13.67;12.00;9.33
76304;PMS7003;65111;50.536;19.204;2023-02-28T06:46:43;15.50;15.00;10.00
76304;PMS7003;65111;50.536;19.204;2023-02-28T06:49:11;16.00;12.00;7.00
76304;PMS7003;65111;50.536;19.204;2023-02-28T06:51:38;17.00;14.00;12.00
76304;PMS7003;65111;50.536;19.204;2023-02-28T06:54:07;19.33;18.33;13.67
76304;PMS7003;65111;50.536;19.204;2023-02-28T06:56:36;19.00;17.50;13.00
76304;PMS7003;65111;50.536;19.204;2023-02-28T06:59:02;30.00;27.00;17.00
76304;PMS7003;65111;50.536;19.204;2023-02-28T07:01:29;25.00;22.50;16.00
76304;PMS7003;65111;50.536;19.204;2023-02-28T07:03:58;27.00;21.67;13.33
76304;PMS7003;65111;50.536;19.204;2023-02-28T07:06:25;19.33;19.00;12.00
76304;PMS7003;65111;50.536;19.204;2023-02-28T07:08:52;24.00;20.50;13.50
76304;PMS7003;65111;50.536;19.204;2023-02-28T07:11:19;23.00;23.00;15.00
76304;PMS7003;65111;50.536;19.204;2023-02-28T07:13:48;25.67;20.33;15.00
76304;PMS7003;65111;50.536;19.204;2023-02-28T07:16:16;19.50;18.00;13.00
76304;PMS7003;65111;50.536;19.204;2023-02-28T07:18:42;27.50;24.50;16.00
76304;PMS7003;65111;50.536;19.204;2023-02-28T07:21:08;23.00;22.50;17.00
76304;PMS7003;65111;50.536;19.204;2023-02-28T07:23:35;23.50;23.00;14.50
76304;PMS7003;65111;50.536;19.204;2023-02-28T07:26:03;16.00;13.00;6.00
76304;PMS7003;65111;50.536;19.204;2023-02-28T07:28:31;32.00;28.00;20.00
76304;PMS7003;65111;50.536;19.204;2023-02-28T07:30:57;27.00;25.00;21.00
76304;PMS7003;65111;50.536;19.204;2023-02-28T07:33:29;22.67;22.67;15.67
76304;PMS7003;65111;50.536;19.204;2023-02-28T07:35:59;27.50;23.50;15.00
76304;PMS7003;65111;50.536;19.204;2023-02-28T07:38:30;33.33;25.33;15.00
76304;PMS7003;65111;50.536;19.204;2023-02-28T07:40:56;23.00;21.00;17.00
76304;PMS7003;65111;50.536;19.204;2023-02-28T07:43:22;12.50;10.50;3.00
76304;PMS7003;65111;50.536;19.204;2023-02-28T07:45:48;22.00;18.50;11.50
76304;PMS7003;65111;50.536;19.204;2023-02-28T07:48:14;28.00;25.00;18.00
76304;PMS7003;65111;50.536;19.204;2023-02-28T07:50:40;29.50;26.00;18.00
76304;PMS7003;65111;50.536;19.204;2023-02-28T07:53:06;23.50;23.50;17.00
76304;PMS7003;65111;50.536;19.204;2023-02-28T07:55:32;29.00;26.00;18.00
76304;PMS7003;65111;50.536;19.204;2023-02-28T07:57:58;21.33;17.67;15.67
76304;PMS7003;65111;50.536;19.204;2023-02-28T08:00:24;26.50;23.00;16.00
76304;PMS7003;65111;50.536;19.204;2023-02-28T08:02:50;21.33;20.67;15.67
76304;PMS7003;65111;50.536;19.204;2023-02-28T08:05:16;18.00;17.00;11.00
76304;PMS7003;65111;50.536;19.204;2023-02-28T08:07:42;25.00;22.00;13.00
76304;PMS7003;65111;50.536;19.204;2023-02-28T08:10:08;27.67;22.67;14.33
76304;PMS7003;65111;50.536;19.204;2023-02-28T08:12:35;30.33;25.33;14.67
76304;PMS7003;65111;50.536;19.204;2023-02-28T08:15:01;28.00;25.00;17.00
76304;PMS7003;65111;50.536;19.204;2023-02-28T08:17:27;24.00;21.50;13.50
76304;PMS7003;65111;50.536;19.204;2023-02-28T08:19:54;26.00;21.00;14.00
76304;PMS7003;65111;50.536;19.204;2023-02-28T08:22:20;19.50;18.50;14.50
76304;PMS7003;65111;50.536;19.204;2023-02-28T08:24:46;23.50;20.00;14.50
76304;PMS7003;65111;50.536;19.204;2023-02-28T08:27:12;21.00;18.00;11.00
76304;PMS7003;65111;50.536;19.204;2023-02-28T08:29:38;15.00;15.00;10.00
76304;PMS7003;65111;50.536;19.204;2023-02-28T08:32:05;17.00;15.00;10.50
76304;PMS7003;65111;50.536;19.204;2023-02-28T08:34:32;14.67;13.67;10.00
76304;PMS7003;65111;50.536;19.204;2023-02-28T08:36:58;13.00;13.00;10.00
76304;PMS7003;65111;50.536;19.204;2023-02-28T08:39:24;14.00;13.00;10.00
76304;PMS7003;65111;50.536;19.204;2023-02-28T08:41:50;19.00;12.50;9.00
76304;PMS7003;65111;50.536;19.204;2023-02-28T08:44:16;18.33;14.33;11.33
76304;PMS7003;65111;50.536;19.204;2023-02-28T08:46:42;19.00;17.00;13.00
76304;PMS7003;65111;50.536;19.204;2023-02-28T08:49:09;15.00;12.00;8.00
76304;PMS7003;65111;50.536;19.204;2023-02-28T08:51:36;14.00;14.00;9.00
76304;PMS7003;65111;50.536;19.204;2023-02-28T08:54:02;13.50;12.00;8.50
76304;PMS7003;65111;50.536;19.204;2023-02-28T08:56:28;7.50;7.50;4.00
76304;PMS7003;65111;50.536;19.204;2023-02-28T08:58:55;15.00;10.00;6.50
76304;PMS7003;65111;50.536;19.204;2023-02-28T09:01:23;9.33;9.33;6.67
76304;PMS7003;65111;50.536;19.204;2023-02-28T09:03:49;16.00;13.00;9.00
76304;PMS7003;65111;50.536;19.204;2023-02-28T09:06:17;17.00;15.00;10.00
76304;PMS7003;65111;50.536;19.204;2023-02-28T09:08:44;13.50;13.50;9.00
76304;PMS7003;65111;50.536;19.204;2023-02-28T09:11:10;16.33;13.00;9.33
76304;PMS7003;65111;50.536;19.204;2023-02-28T09:13:37;15.67;14.33;9.67
76304;PMS7003;65111;50.536;19.204;2023-02-28T09:16:05;13.00;12.00;9.00
76304;PMS7003;65111;50.536;19.204;2023-02-28T09:18:36;14.00;11.50;8.50
76304;PMS7003;65111;50.536;19.204;2023-02-28T09:21:07;12.33;12.33;9.00
76304;PMS7003;65111;50.536;19.204;2023-02-28T09:23:34;13.00;12.00;9.00
76304;PMS7003;65111;50.536;19.204;2023-02-28T09:26:03;10.00;10.00;8.00
76304;PMS7003;65111;50.536;19.204;2023-02-28T09:28:30;11.00;11.00;9.00
76304;PMS7003;65111;50.536;19.204;2023-02-28T09:30:56;11.50;10.00;8.00
76304;PMS7003;65111;50.536;19.204;2023-02-28T09:33:24;16.00;14.33;9.33
76304;PMS7003;65111;50.536;19.204;2023-02-28T09:35:57;14.00;13.33;10.00
76304;PMS7003;65111;50.536;19.204;2023-02-28T09:38:26;18.67;13.00;9.00
76304;PMS7003;65111;50.536;19.204;2023-02-28T09:40:57;9.67;9.67;7.33
76304;PMS7003;65111;50.536;19.204;2023-02-28T09:43:31;17.00;16.33;10.67
76304;PMS7003;65111;50.536;19.204;2023-02-28T09:48:54;10.00;10.00;7.00
76304;PMS7003;65111;50.536;19.204;2023-02-28T09:54:13;12.00;11.00;7.33
76304;PMS7003;65111;50.536;19.204;2023-02-28T09:56:45;10.00;9.00;7.00
76304;PMS7003;65111;50.536;19.204;2023-02-28T09:59:21;14.00;11.00;7.50
76304;PMS7003;65111;50.536;19.204;2023-02-28T10:05:15;13.00;8.00;7.00
76304;PMS7003;65111;50.536;19.204;2023-02-28T10:10:33;10.67;10.67;9.00
76304;PMS7003;65111;50.536;19.204;2023-02-28T10:13:05;12.33;12.33;7.00
76304;PMS7003;65111;50.536;19.204;2023-02-28T10:15:39;10.00;9.00;6.00
76304;PMS7003;65111;50.536;19.204;2023-02-28T10:18:09;12.50;12.50;7.00
76304;PMS7003;65111;50.536;19.204;2023-02-28T10:20:39;10.00;10.00;6.00
76304;PMS7003;65111;50.536;19.204;2023-02-28T10:23:22;11.33;11.33;6.33
76304;PMS7003;65111;50.536;19.204;2023-02-28T10:25:59;9.67;9.67;6.33
76304;PMS7003;65111;50.536;19.204;2023-02-28T10:28:31;10.00;10.00;6.50
76304;PMS7003;65111;50.536;19.204;2023-02-28T10:30:57;13.00;13.00;9.00
76304;PMS7003;65111;50.536;19.204;2023-02-28T10:33:25;14.67;10.33;8.33
76304;PMS7003;65111;50.536;19.204;2023-02-28T10:35:59;15.00;12.00;7.50
76304;PMS7003;65111;50.536;19.204;2023-02-28T10:38:29;17.50;10.50;7.50
76304;PMS7003;65111;50.536;19.204;2023-02-28T10:41:10;8.00;7.00;4.00
76304;PMS7003;65111;50.536;19.204;2023-02-28T10:43:39;17.00;12.50;9.00
76304;PMS7003;65111;50.536;19.204;2023-02-28T10:48:43;13.33;11.67;7.33
76304;PMS7003;65111;50.536;19.204;2023-02-28T10:51:16;14.00;13.00;9.00
76304;PMS7003;65111;50.536;19.204;2023-02-28T10:56:19;11.00;7.00;6.00
76304;PMS7003;65111;50.536;19.204;2023-02-28T10:58:52;14.00;12.00;7.50
76304;PMS7003;65111;50.536;19.204;2023-02-28T11:01:20;14.33;12.67;8.00
76304;PMS7003;65111;50.536;19.204;2023-02-28T11:03:56;13.00;11.00;8.00
76304;PMS7003;65111;50.536;19.204;2023-02-28T11:06:32;19.00;19.00;12.00
76304;PMS7003;65111;50.536;19.204;2023-02-28T11:11:45;7.00;7.00;6.50
76304;PMS7003;65111;50.536;19.204;2023-02-28T11:14:23;17.00;14.00;11.00
76304;PMS7003;65111;50.536;19.204;2023-02-28T11:16:52;20.00;14.00;10.00
76304;PMS7003;65111;50.536;19.204;2023-02-28T11:19:25;13.00;12.00;9.00
76304;PMS7003;65111;50.536;19.204;2023-02-28T11:21:58;15.00;10.00;7.00
76304;PMS7003;65111;50.536;19.204;2023-02-28T11:24:28;16.00;12.00;6.00
76304;PMS7003;65111;50.536;19.204;2023-02-28T11:26:57;14.00;11.00;10.00
76304;PMS7003;65111;50.536;19.204;2023-02-28T11:29:25;11.00;11.00;8.50
76304;PMS7003;65111;50.536;19.204;2023-02-28T11:32:27;15.67;14.67;9.33
76304;PMS7003;65111;50.536;19.204;2023-02-28T11:35:00;17.67;16.33;10.00
76304;PMS7003;65111;50.536;19.204;2023-02-28T11:37:30;22.50;21.00;13.50
76304;PMS7003;65111;50.536;19.204;2023-02-28T11:39:58;15.50;13.00;8.00
76304;PMS7003;65111;50.536;19.204;2023-02-28T11:56:29;16.00;16.00;11.50
76304;PMS7003;65111;50.536;19.204;2023-02-28T11:59:13;15.00;13.00;10.00
76304;PMS7003;65111;50.536;19.204;2023-02-28T12:04:52;12.50;12.50;10.00
76304;PMS7003;65111;50.536;19.204;2023-02-28T12:07:26;12.00;12.00;7.00
76304;PMS7003;65111;50.536;19.204;2023-02-28T12:13:05;12.00;11.00;8.00
76304;PMS7003;65111;50.536;19.204;2023-02-28T12:26:44;14.00;13.00;10.00
76304;PMS7003;65111;50.536;19.204;2023-02-28T12:29:26;15.00;15.00;10.00
76304;PMS7003;65111;50.536;19.204;2023-02-28T12:34:49;17.00;15.50;11.50
76304;PMS7003;65111;50.536;19.204;2023-02-28T12:37:31;14.50;14.50;10.50
76304;PMS7003;65111;50.536;19.204;2023-02-28T12:40:05;19.00;17.00;12.00
76304;PMS7003;65111;50.536;19.204;2023-02-28T12:42:39;17.50;17.00;11.50
76304;PMS7003;65111;50.536;19.204;2023-02-28T12:45:10;18.50;16.00;11.00
76304;PMS7003;65111;50.536;19.204;2023-02-28T12:47:52;17.00;15.00;12.00
76304;PMS7003;65111;50.536;19.204;2023-02-28T12:50:33;17.00;16.00;11.00
76304;PMS7003;65111;50.536;19.204;2023-02-28T12:56:19;13.00;13.00;9.50
76304;PMS7003;65111;50.536;19.204;2023-02-28T12:58:52;10.00;9.00;6.00
76304;PMS7003;65111;50.536;19.204;2023-02-28T13:01:28;17.33;14.00;10.33
76304;PMS7003;65111;50.536;19.204;2023-02-28T13:07:04;12.00;12.00;8.00
76304;PMS7003;65111;50.536;19.204;2023-02-28T13:09:57;17.00;14.00;9.00
76304;PMS7003;65111;50.536;19.204;2023-02-28T13:12:25;18.50;16.00;13.00
76304;PMS7003;65111;50.536;19.204;2023-02-28T13:15:01;22.33;21.00;14.67
76304;PMS7003;65111;50.536;19.204;2023-02-28T13:17:29;22.00;20.00;13.00
76304;PMS7003;65111;50.536;19.204;2023-02-28T13:19:56;17.00;14.33;10.33
76304;PMS7003;65111;50.536;19.204;2023-02-28T13:27:54;10.00;9.50;6.00
76304;PMS7003;65111;50.536;19.204;2023-02-28T13:33:27;10.00;7.00;6.00
76304;PMS7003;65111;50.536;19.204;2023-02-28T13:36:06;13.00;11.33;9.00
76304;PMS7003;65111;50.536;19.204;2023-02-28T13:38:36;13.67;8.33;7.00
76304;PMS7003;65111;50.536;19.204;2023-02-28T13:44:09;3.00;3.00;0.00
76304;PMS7003;65111;50.536;19.204;2023-02-28T13:51:56;9.33;6.00;4.00
76304;PMS7003;65111;50.536;19.204;2023-02-28T14:06:07;9.00;7.00;4.00
76304;PMS7003;65111;50.536;19.204;2023-02-28T14:09:03;7.00;7.00;4.00
76304;PMS7003;65111;50.536;19.204;2023-02-28T14:11:44;9.33;8.33;6.33
76304;PMS7003;65111;50.536;19.204;2023-02-28T14:17:03;6.50;6.50;4.00
76304;PMS7003;65111;50.536;19.204;2023-02-28T14:19:35;13.00;9.67;7.00
76304;PMS7003;65111;50.536;19.204;2023-02-28T14:41:23;4.00;4.00;3.33
76304;PMS7003;65111;50.536;19.204;2023-02-28T14:43:58;9.00;9.00;6.00
76304;PMS7003;65111;50.536;19.204;2023-02-28T14:46:26;12.00;10.00;7.00
76304;PMS7003;65111;50.536;19.204;2023-02-28T14:49:01;12.50;11.00;6.00
76304;PMS7003;65111;50.536;19.204;2023-02-28T14:51:29;12.00;7.00;5.33
76304;PMS7003;65111;50.536;19.204;2023-02-28T14:53:57;7.00;7.00;6.00
76304;PMS7003;65111;50.536;19.204;2023-02-28T14:56:30;10.00;10.00;9.00
76304;PMS7003;65111;50.536;19.204;2023-02-28T14:59:00;9.00;9.00;6.00
76304;PMS7003;65111;50.536;19.204;2023-02-28T15:01:26;7.00;7.00;5.67
76304;PMS7003;65111;50.536;19.204;2023-02-28T15:04:03;7.67;6.00;6.00
76304;PMS7003;65111;50.536;19.204;2023-02-28T15:06:31;6.50;6.50;4.00
76304;PMS7003;65111;50.536;19.204;2023-02-28T15:11:47;12.00;12.00;9.00
76304;PMS7003;65111;50.536;19.204;2023-02-28T15:14:16;4.00;4.00;1.67
76304;PMS7003;65111;50.536;19.204;2023-02-28T15:16:45;10.67;9.67;7.67
76304;PMS7003;65111;50.536;19.204;2023-02-28T15:19:19;9.00;7.00;4.00
76304;PMS7003;65111;50.536;19.204;2023-02-28T15:21:53;16.00;12.00;7.00
76304;PMS7003;65111;50.536;19.204;2023-02-28T15:27:13;18.50;15.00;10.00
76304;PMS7003;65111;50.536;19.204;2023-02-28T15:29:47;18.50;16.00;10.00
76304;PMS7003;65111;50.536;19.204;2023-02-28T15:32:27;14.00;12.00;8.00
76304;PMS7003;65111;50.536;19.204;2023-02-28T15:34:54;12.50;10.00;7.00
76304;PMS7003;65111;50.536;19.204;2023-02-28T15:39:53;15.50;12.00;8.00
76304;PMS7003;65111;50.536;19.204;2023-02-28T15:42:22;24.67;19.67;9.00
76304;PMS7003;65111;50.536;19.204;2023-02-28T15:44:56;18.33;17.67;12.00
76304;PMS7003;65111;50.536;19.204;2023-02-28T15:47:29;14.00;14.00;9.00
76304;PMS7003;65111;50.536;19.204;2023-02-28T15:50:00;19.67;17.33;9.67
76304;PMS7003;65111;50.536;19.204;2023-02-28T15:52:39;14.33;14.33;4.00
76304;PMS7003;65111;50.536;19.204;2023-02-28T15:55:09;16.00;16.00;8.00
76304;PMS7003;65111;50.536;19.204;2023-02-28T15:57:41;16.00;14.00;9.50
76304;PMS7003;65111;50.536;19.204;2023-02-28T16:00:10;16.67;10.00;7.00
76304;PMS7003;65111;50.536;19.204;2023-02-28T16:02:42;13.00;10.00;7.00
76304;PMS7003;65111;50.536;19.204;2023-02-28T16:07:37;14.00;10.00;6.00
76304;PMS7003;65111;50.536;19.204;2023-02-28T16:10:05;27.00;21.00;10.67
76304;PMS7003;65111;50.536;19.204;2023-02-28T16:12:33;22.00;21.50;12.50
76304;PMS7003;65111;50.536;19.204;2023-02-28T16:15:02;24.00;21.00;13.00
76304;PMS7003;65111;50.536;19.204;2023-02-28T16:17:34;13.67;10.67;4.67
76304;PMS7003;65111;50.536;19.204;2023-02-28T16:20:11;13.00;12.00;9.00
76304;PMS7003;65111;50.536;19.204;2023-02-28T16:22:40;12.00;10.00;7.00
76304;PMS7003;65111;50.536;19.204;2023-02-28T16:25:10;16.00;16.00;9.50
76304;PMS7003;65111;50.536;19.204;2023-02-28T16:27:40;19.75;17.00;12.50
76304;PMS7003;65111;50.536;19.204;2023-02-28T16:30:19;18.50;18.50;13.00
76304;PMS7003;65111;50.536;19.204;2023-02-28T16:32:48;28.67;19.67;12.67
76304;PMS7003;65111;50.536;19.204;2023-02-28T16:35:15;24.00;18.00;12.00
76304;PMS7003;65111;50.536;19.204;2023-02-28T16:37:43;17.33;15.67;12.00
76304;PMS7003;65111;50.536;19.204;2023-02-28T16:40:13;20.50;14.00;9.00
76304;PMS7003;65111;50.536;19.204;2023-02-28T16:42:45;23.00;15.00;9.50
76304;PMS7003;65111;50.536;19.204;2023-02-28T16:45:17;19.50;16.00;9.75
76304;PMS7003;65111;50.536;19.204;2023-02-28T16:47:46;21.00;15.50;6.50